KMRN/MRN METAR and TAF weather

Enter ICAO airport designator
Station Type Date Time Source
KMRN METAR 2022/12/04 04:55 UTC NOAA

KMRN 040455Z AUTO 32003KT 10SM CLR 10/06 A3030 RMK AO2 T01020058


Station Type Date Time Source
KMRN Decoded METAR 2022/12/04 04:55 UTC NOAA

Morganton, Morganton-Lenoir Airport, NC, United States (KMRN) 35-49-17N 081-36-39W
Dec 03, 2022 - 11:55 PM EST / 2022.12.04 0455 UTC
Wind: from the NW (320 degrees) at 3 MPH (3 KT):0
Visibility: 10 mile(s):0
Sky conditions: clear
Temperature: 50.4 F (10.2 C)
Dew Point: 42.4 F (5.8 C)
Relative Humidity: 74%
Pressure (altimeter): 30.3 in. Hg (1026 hPa)
ob: KMRN 040455Z AUTO 32003KT 10SM CLR 10/06 A3030 RMK AO2 T01020058
cycle: 5

Station Type Date Time Source
KMRN TAF UTC NOAA

Error!

Example: see airport list